Time;durP1;ratioP1;P1;durP2;ratioP2;P2;SDS_P1;SDS_P2;PMS_P1;PMS_P2;Temp;Humidity;BMP_temperature;BMP_pressure;BME280_temperature;BME280_humidity;BME280_pressure;Samples;Min_cycle;Max_cycle;Signal;HPM_P1;HPM_P2
2023/05/07 00:02:03;;;;;;;16.13;13.63;;;14.00;99.90;;;;;;5066478;28;20135;-75
2023/05/07 00:04:35;;;;;;;18.25;13.73;;;13.90;99.90;;;;;;5057999;28;20105;-78
2023/05/07 00:07:01;;;;;;;18.95;13.90;;;14.00;99.90;;;;;;5052596;28;20857;-76
2023/05/07 00:09:27;;;;;;;17.88;14.50;;;14.00;99.90;;;;;;5052907;28;20044;-78
2023/05/07 00:11:53;;;;;;;19.00;14.27;;;13.90;99.90;;;;;;5054281;28;20492;-76
2023/05/07 00:14:19;;;;;;;20.15;14.90;;;13.90;99.90;;;;;;5008442;28;20055;-76
2023/05/07 00:16:44;;;;;;;18.35;14.52;;;13.90;99.90;;;;;;5052328;28;20110;-78
2023/05/07 00:19:10;;;;;;;16.30;14.00;;;13.90;99.90;;;;;;5054071;28;20037;-77
2023/05/07 00:21:36;;;;;;;17.50;14.00;;;13.90;99.90;;;;;;5051000;28;20056;-77
2023/05/07 00:24:02;;;;;;;19.80;13.55;;;13.80;99.90;;;;;;5041640;28;20059;-77
2023/05/07 00:26:27;;;;;;;18.63;14.18;;;13.80;99.90;;;;;;5050644;28;20094;-77
2023/05/07 00:28:53;;;;;;;19.63;14.80;;;13.80;99.90;;;;;;5053833;28;20534;-76
2023/05/07 00:31:21;;;;;;;17.33;13.95;;;13.80;99.90;;;;;;5054459;28;20060;-76
2023/05/07 00:33:49;;;;;;;21.92;15.50;;;13.80;99.90;;;;;;5041816;28;20055;-77
2023/05/07 00:36:15;;;;;;;18.02;13.82;;;13.80;99.90;;;;;;5058779;28;20143;-78
2023/05/07 00:38:40;;;;;;;18.98;14.35;;;13.80;99.90;;;;;;5029937;28;20403;-76
2023/05/07 00:41:06;;;;;;;17.33;14.23;;;13.70;99.90;;;;;;5051979;28;20190;-76
2023/05/07 00:43:32;;;;;;;18.42;14.05;;;13.70;99.90;;;;;;5041515;28;21920;-74
2023/05/07 00:45:58;;;;;;;17.55;13.75;;;13.50;99.90;;;;;;5055320;28;20048;-74
2023/05/07 00:48:24;;;;;;;18.52;13.75;;;13.70;99.90;;;;;;5024373;28;20170;-76
2023/05/07 00:50:50;;;;;;;18.98;14.43;;;13.70;99.90;;;;;;5056739;28;20052;-77
2023/05/07 00:53:16;;;;;;;17.80;13.75;;;13.60;99.90;;;;;;5053852;28;20072;-78
2023/05/07 00:55:42;;;;;;;17.95;13.55;;;13.60;99.90;;;;;;5061363;28;20154;-78
2023/05/07 00:58:08;;;;;;;17.27;13.43;;;13.60;99.90;;;;;;5048982;28;20569;-76
2023/05/07 01:00:35;;;;;;;17.63;14.30;;;13.60;99.90;;;;;;5045820;28;20379;-77
2023/05/07 01:03:01;;;;;;;19.42;13.90;;;13.60;99.90;;;;;;5058485;28;20135;-76
2023/05/07 01:05:28;;;;;;;17.05;13.45;;;13.60;99.90;;;;;;5049445;28;20060;-77
2023/05/07 01:07:56;;;;;;;17.95;14.10;;;13.60;99.90;;;;;;5035219;28;20049;-78
2023/05/07 01:10:23;;;;;;;17.83;14.32;;;13.60;99.90;;;;;;5050100;28;20055;-75
2023/05/07 01:12:50;;;;;;;18.75;13.90;;;13.60;99.90;;;;;;5054833;28;20049;-75
2023/05/07 01:15:17;;;;;;;16.55;13.32;;;13.60;99.90;;;;;;5053474;28;20109;-76
2023/05/07 01:17:43;;;;;;;16.80;13.00;;;13.60;99.90;;;;;;5038523;28;20048;-75
2023/05/07 01:20:10;;;;;;;19.13;14.18;;;13.50;99.90;;;;;;5034284;28;20062;-75
2023/05/07 01:22:39;;;;;;;18.77;13.20;;;13.50;99.90;;;;;;5052784;28;20044;-77
2023/05/07 01:25:09;;;;;;;18.63;14.32;;;13.50;99.90;;;;;;5048694;28;20519;-77
2023/05/07 01:27:38;;;;;;;19.17;13.88;;;13.50;99.90;;;;;;5054688;28;20748;-78
2023/05/07 01:30:05;;;;;;;19.33;13.77;;;13.50;99.90;;;;;;5053885;28;20075;-76
2023/05/07 01:32:37;;;;;;;19.30;14.02;;;13.50;99.90;;;;;;5050904;28;20056;-74
2023/05/07 01:35:07;;;;;;;18.05;13.70;;;13.50;99.90;;;;;;5058720;28;20116;-77
2023/05/07 01:37:33;;;;;;;19.65;14.25;;;13.50;99.90;;;;;;5052974;28;20055;-75
2023/05/07 01:40:00;;;;;;;17.50;13.68;;;13.50;99.90;;;;;;5031556;28;20720;-76
2023/05/07 01:42:27;;;;;;;17.88;13.98;;;13.50;99.90;;;;;;5043857;28;20142;-78
2023/05/07 01:44:53;;;;;;;18.98;14.55;;;13.50;99.90;;;;;;5051609;28;20076;-75
2023/05/07 01:47:20;;;;;;;18.50;13.70;;;13.50;99.90;;;;;;5047797;28;20136;-77
2023/05/07 01:49:46;;;;;;;16.35;12.70;;;13.40;99.90;;;;;;5044554;28;20763;-77
2023/05/07 01:52:14;;;;;;;17.48;12.55;;;13.40;99.90;;;;;;5044398;28;20055;-78
2023/05/07 01:54:40;;;;;;;19.23;14.43;;;13.40;99.90;;;;;;5039771;28;21867;-75
2023/05/07 01:57:06;;;;;;;15.75;11.98;;;13.40;99.90;;;;;;5050160;28;20048;-76
2023/05/07 01:59:32;;;;;;;18.08;12.80;;;13.40;99.90;;;;;;5053336;28;20052;-75
2023/05/07 02:01:58;;;;;;;16.73;13.15;;;13.40;99.90;;;;;;5047070;28;20079;-76
2023/05/07 02:04:24;;;;;;;17.17;12.52;;;13.40;99.90;;;;;;5052100;28;20050;-78
2023/05/07 02:06:50;;;;;;;18.52;13.30;;;13.40;99.90;;;;;;5034798;28;20047;-74
2023/05/07 02:09:16;;;;;;;21.05;13.10;;;13.40;99.90;;;;;;5053489;28;20394;-78
2023/05/07 02:11:42;;;;;;;16.35;12.02;;;13.40;99.90;;;;;;5056729;28;20045;-76
2023/05/07 02:14:08;;;;;;;17.60;13.77;;;13.40;99.90;;;;;;5051260;28;20051;-76
2023/05/07 02:16:33;;;;;;;18.85;12.77;;;13.40;99.90;;;;;;5053864;28;20135;-79
2023/05/07 02:18:59;;;;;;;17.52;13.38;;;13.30;99.90;;;;;;5038321;28;20047;-76
2023/05/07 02:21:25;;;;;;;15.38;12.55;;;13.30;99.90;;;;;;5057507;28;20070;-75
2023/05/07 02:23:51;;;;;;;16.92;13.18;;;13.30;99.90;;;;;;5050789;28;20576;-76
2023/05/07 02:26:17;;;;;;;17.83;13.50;;;13.30;99.90;;;;;;5049420;28;20049;-78
2023/05/07 02:28:42;;;;;;;16.38;12.77;;;13.30;99.90;;;;;;5048414;28;20044;-77
2023/05/07 02:31:08;;;;;;;16.85;13.02;;;13.30;99.90;;;;;;5045401;28;20991;-75
2023/05/07 02:33:37;;;;;;;15.23;12.07;;;13.20;99.90;;;;;;5049576;28;20131;-76
2023/05/07 02:36:08;;;;;;;20.08;13.00;;;13.30;99.90;;;;;;5033217;28;20481;-77
2023/05/07 02:38:34;;;;;;;13.65;11.55;;;13.20;99.90;;;;;;5050636;28;20044;-75
2023/05/07 02:41:00;;;;;;;16.30;12.65;;;13.20;99.90;;;;;;5038253;28;20044;-75
2023/05/07 02:43:31;;;;;;;16.77;12.77;;;13.20;99.90;;;;;;5045627;28;20424;-78
2023/05/07 02:46:05;;;;;;;17.02;13.13;;;13.20;99.90;;;;;;5045909;28;20044;-78
2023/05/07 02:48:31;;;;;;;15.88;12.10;;;13.20;99.90;;;;;;5037783;28;20048;-78
2023/05/07 02:50:57;;;;;;;17.67;12.38;;;13.20;99.90;;;;;;5043528;28;20135;-78
2023/05/07 02:53:25;;;;;;;15.40;12.80;;;13.20;99.90;;;;;;5049965;28;20052;-77
2023/05/07 02:55:56;;;;;;;14.38;11.85;;;13.20;99.90;;;;;;5039824;28;20445;-74
2023/05/07 02:58:21;;;;;;;16.23;13.15;;;13.20;99.90;;;;;;5049927;28;20080;-78
2023/05/07 03:00:47;;;;;;;16.92;13.68;;;13.20;99.90;;;;;;5047853;28;20135;-76
2023/05/07 03:03:14;;;;;;;15.63;12.23;;;12.90;99.90;;;;;;5047609;28;20052;-77
2023/05/07 03:05:40;;;;;;;18.50;14.02;;;13.10;99.90;;;;;;5045976;28;20127;-75
2023/05/07 03:08:06;;;;;;;18.92;13.98;;;13.10;99.90;;;;;;5054940;28;20063;-76
2023/05/07 03:10:32;;;;;;;19.95;13.85;;;13.10;99.90;;;;;;5051800;28;20056;-78
2023/05/07 03:13:05;;;;;;;18.52;14.57;;;13.10;99.90;;;;;;5051846;28;20470;-75
2023/05/07 03:15:31;;;;;;;18.65;13.85;;;13.10;99.90;;;;;;5035904;28;20499;-76
2023/05/07 03:17:57;;;;;;;17.73;13.98;;;13.00;99.90;;;;;;5052372;28;20068;-78
2023/05/07 03:20:25;;;;;;;19.95;15.48;;;13.00;99.90;;;;;;5041791;28;20048;-75
2023/05/07 03:22:51;;;;;;;19.77;14.52;;;13.00;99.90;;;;;;5033175;28;20108;-74
2023/05/07 03:25:17;;;;;;;21.50;15.65;;;13.00;99.90;;;;;;5053523;28;20515;-74
2023/05/07 03:27:46;;;;;;;18.40;15.05;;;12.90;99.90;;;;;;5052434;28;20087;-75
2023/05/07 03:30:12;;;;;;;21.48;16.15;;;12.90;99.90;;;;;;5038933;28;20036;-75
2023/05/07 03:32:38;;;;;;;21.40;14.93;;;12.90;99.90;;;;;;5055001;28;20446;-73
2023/05/07 03:35:07;;;;;;;21.48;15.52;;;12.90;99.90;;;;;;5045025;28;20052;-75
2023/05/07 03:37:33;;;;;;;21.33;16.60;;;12.90;99.90;;;;;;5036323;28;21540;-77
2023/05/07 03:40:03;;;;;;;22.27;16.73;;;12.90;99.90;;;;;;5051089;28;20837;-76
2023/05/07 03:42:29;;;;;;;21.38;17.30;;;12.90;99.90;;;;;;5021079;28;20132;-77
2023/05/07 03:44:56;;;;;;;22.02;17.02;;;12.90;99.90;;;;;;5048619;28;20052;-77
2023/05/07 03:47:22;;;;;;;23.10;18.10;;;12.80;99.90;;;;;;5052958;28;20052;-77
2023/05/07 03:49:49;;;;;;;23.83;18.65;;;12.80;99.90;;;;;;5044523;28;20063;-74
2023/05/07 03:52:15;;;;;;;23.15;17.85;;;12.80;99.90;;;;;;5044089;28;20101;-76
2023/05/07 03:54:40;;;;;;;23.75;18.45;;;12.80;99.90;;;;;;5033221;28;20055;-75
2023/05/07 03:57:06;;;;;;;26.25;19.40;;;13.00;99.90;;;;;;5058634;28;20044;-76
2023/05/07 03:59:32;;;;;;;22.42;18.33;;;12.70;99.90;;;;;;5041168;28;20127;-79
2023/05/07 04:01:58;;;;;;;27.55;19.25;;;12.70;99.90;;;;;;5047284;28;20283;-77
2023/05/07 04:04:24;;;;;;;28.27;20.13;;;12.70;99.90;;;;;;5055086;28;20041;-76
2023/05/07 04:06:50;;;;;;;25.52;18.98;;;12.70;99.90;;;;;;5024537;28;20044;-79
2023/05/07 04:09:21;;;;;;;27.17;19.30;;;12.70;99.90;;;;;;5043617;28;20059;-76
2023/05/07 04:11:46;;;;;;;25.25;19.02;;;12.70;99.90;;;;;;5069544;28;20079;-75
2023/05/07 04:14:12;;;;;;;24.30;19.50;;;12.60;99.90;;;;;;5054307;28;20040;-75
2023/05/07 04:16:38;;;;;;;27.80;19.50;;;12.60;99.90;;;;;;5037240;28;20116;-75
2023/05/07 04:19:04;;;;;;;25.17;19.02;;;12.60;99.90;;;;;;5031711;28;20055;-75
2023/05/07 04:21:31;;;;;;;26.05;19.33;;;12.60;99.90;;;;;;5048844;28;20048;-77
2023/05/07 04:23:58;;;;;;;23.90;19.05;;;13.00;99.90;;;;;;5033495;28;20466;-75
2023/05/07 04:26:24;;;;;;;25.30;18.92;;;12.60;99.90;;;;;;5051607;28;20110;-75
2023/05/07 04:28:50;;;;;;;24.60;20.05;;;12.60;99.90;;;;;;5040918;28;20056;-78
2023/05/07 04:31:16;;;;;;;24.02;18.73;;;12.60;99.90;;;;;;5043661;28;20279;-76
2023/05/07 04:33:42;;;;;;;23.17;18.38;;;12.50;99.90;;;;;;5035743;28;20040;-75
2023/05/07 04:36:08;;;;;;;26.95;19.17;;;12.50;99.90;;;;;;5058960;28;20048;-76
2023/05/07 04:38:34;;;;;;;24.60;18.55;;;12.60;99.90;;;;;;5062975;28;20501;-76
2023/05/07 04:41:05;;;;;;;26.90;19.75;;;12.60;99.90;;;;;;5054108;28;20048;-75
2023/05/07 04:43:31;;;;;;;25.15;18.60;;;12.60;99.90;;;;;;5046016;28;20319;-78
2023/05/07 04:45:56;;;;;;;25.27;18.23;;;12.60;99.90;;;;;;5054998;28;20352;-76
2023/05/07 04:48:22;;;;;;;26.23;18.83;;;12.50;99.90;;;;;;5021412;28;20044;-74
2023/05/07 04:50:49;;;;;;;25.20;19.63;;;12.50;99.90;;;;;;5053605;28;20055;-75
2023/05/07 04:53:16;;;;;;;26.65;19.95;;;12.50;99.90;;;;;;5051639;28;20050;-76
2023/05/07 04:55:42;;;;;;;24.90;19.48;;;12.50;99.90;;;;;;5050973;28;20049;-76
2023/05/07 04:58:08;;;;;;;28.98;20.27;;;12.50;99.90;;;;;;5054185;28;20439;-76
2023/05/07 05:00:34;;;;;;;27.05;20.02;;;12.40;99.90;;;;;;5050127;28;20140;-75
2023/05/07 05:03:00;;;;;;;26.23;19.58;;;12.40;99.90;;;;;;5051707;28;20048;-77
2023/05/07 05:05:32;;;;;;;27.10;20.17;;;12.40;99.90;;;;;;5039196;28;20052;-76
2023/05/07 05:07:58;;;;;;;25.35;20.77;;;12.40;99.90;;;;;;5033122;28;20063;-76
2023/05/07 05:10:25;;;;;;;25.98;19.42;;;12.40;99.90;;;;;;5051003;28;20715;-76
2023/05/07 05:12:52;;;;;;;25.58;19.92;;;12.40;99.90;;;;;;5051299;28;20080;-77
2023/05/07 05:15:18;;;;;;;26.50;20.33;;;12.40;99.90;;;;;;5038029;28;20823;-75
2023/05/07 05:17:44;;;;;;;28.20;19.83;;;12.40;99.90;;;;;;5030590;28;20052;-76
2023/05/07 05:20:11;;;;;;;27.20;19.85;;;12.40;99.90;;;;;;5042516;28;20056;-78
2023/05/07 05:22:37;;;;;;;31.25;21.73;;;12.40;99.90;;;;;;5054368;28;20052;-78
2023/05/07 05:25:03;;;;;;;30.25;20.30;;;12.40;99.90;;;;;;5051886;28;20036;-76
2023/05/07 05:27:30;;;;;;;28.50;20.77;;;12.40;99.90;;;;;;5051226;28;20043;-76
2023/05/07 05:29:56;;;;;;;26.83;21.30;;;12.40;99.90;;;;;;5056865;28;20482;-75
2023/05/07 05:32:22;;;;;;;27.17;20.27;;;12.40;99.90;;;;;;5058516;28;20044;-78
2023/05/07 05:34:47;;;;;;;26.70;19.80;;;12.40;99.90;;;;;;5059365;28;20196;-78
2023/05/07 05:37:13;;;;;;;29.75;20.00;;;12.40;99.90;;;;;;5036496;28;20082;-78
2023/05/07 05:39:39;;;;;;;32.15;22.40;;;12.40;99.90;;;;;;5022149;28;20071;-76
2023/05/07 05:42:05;;;;;;;28.77;20.75;;;12.40;99.90;;;;;;5051835;28;20040;-75
2023/05/07 05:44:31;;;;;;;33.75;21.08;;;12.40;99.90;;;;;;5057072;28;20052;-77
2023/05/07 05:46:59;;;;;;;30.73;21.75;;;12.40;99.90;;;;;;5031949;28;20058;-78
2023/05/07 05:49:25;;;;;;;35.45;22.00;;;12.40;99.90;;;;;;5031188;28;20554;-76
2023/05/07 05:51:51;;;;;;;30.50;23.48;;;12.40;99.90;;;;;;5054972;28;20499;-75
2023/05/07 05:54:18;;;;;;;33.28;23.83;;;12.40;99.90;;;;;;5055363;28;20335;-77
2023/05/07 05:56:44;;;;;;;29.00;21.60;;;12.40;99.90;;;;;;5041248;28;20097;-73
2023/05/07 05:59:10;;;;;;;29.52;22.02;;;12.50;99.90;;;;;;5033421;28;20461;-79
2023/05/07 06:01:36;;;;;;;33.08;22.38;;;12.50;99.90;;;;;;5050593;28;20049;-76
2023/05/07 06:04:02;;;;;;;36.75;22.95;;;12.50;99.90;;;;;;5048576;28;20067;-73
2023/05/07 06:06:28;;;;;;;30.67;21.58;;;12.50;99.90;;;;;;5014939;28;20413;-77
2023/05/07 06:08:53;;;;;;;32.92;23.02;;;12.60;99.90;;;;;;5062082;28;20047;-75
2023/05/07 06:11:20;;;;;;;31.75;23.73;;;12.60;99.90;;;;;;5054953;28;20048;-77
2023/05/07 06:13:45;;;;;;;32.58;23.13;;;12.60;99.90;;;;;;5058862;28;20567;-77
2023/05/07 06:16:11;;;;;;;33.92;23.35;;;12.60;99.90;;;;;;5036846;28;20133;-75
2023/05/07 06:18:38;;;;;;;31.80;23.85;;;12.60;99.90;;;;;;5050117;28;20055;-75
2023/05/07 06:21:09;;;;;;;34.10;24.65;;;12.60;99.90;;;;;;5053277;28;20566;-77
2023/05/07 06:23:35;;;;;;;35.88;23.92;;;12.60;99.90;;;;;;5038167;28;20486;-77
2023/05/07 06:26:02;;;;;;;33.75;24.95;;;12.60;99.90;;;;;;5039035;28;20146;-74
2023/05/07 06:28:35;;;;;;;35.42;25.35;;;12.70;99.90;;;;;;5053408;28;20114;-76
2023/05/07 06:31:20;;;;;;;37.67;24.88;;;12.40;99.90;;;;;;5042274;28;20109;-77
2023/05/07 06:33:46;;;;;;;34.88;25.45;;;12.70;99.90;;;;;;5036535;28;20044;-75
2023/05/07 06:36:12;;;;;;;33.47;25.40;;;12.70;99.90;;;;;;5039436;28;21407;-76
2023/05/07 06:38:39;;;;;;;37.85;25.60;;;12.70;99.90;;;;;;5050724;28;20083;-75
2023/05/07 06:41:08;;;;;;;38.83;26.05;;;12.70;99.90;;;;;;5067540;28;20067;-75
2023/05/07 06:43:35;;;;;;;36.17;25.48;;;12.70;99.90;;;;;;5047741;28;20398;-77
2023/05/07 06:46:01;;;;;;;32.88;25.63;;;12.70;99.90;;;;;;5016110;28;20510;-74
2023/05/07 06:48:26;;;;;;;36.30;25.25;;;12.80;99.90;;;;;;5051700;28;20055;-74
2023/05/07 06:50:52;;;;;;;38.90;26.48;;;12.80;99.90;;;;;;5050528;28;21410;-78
2023/05/07 06:53:19;;;;;;;34.90;24.98;;;12.90;99.90;;;;;;5049438;28;20841;-75
2023/05/07 06:55:45;;;;;;;34.00;24.55;;;13.00;99.90;;;;;;5058601;28;21104;-76
2023/05/07 06:58:11;;;;;;;35.83;25.33;;;13.10;99.90;;;;;;5040950;28;20056;-76
2023/05/07 07:00:38;;;;;;;37.28;26.30;;;13.10;99.90;;;;;;5052037;28;20561;-75
2023/05/07 07:03:05;;;;;;;36.80;26.67;;;13.20;99.90;;;;;;5049522;28;20055;-77
2023/05/07 07:05:30;;;;;;;37.40;27.27;;;13.30;99.90;;;;;;5038345;28;20044;-76
2023/05/07 07:07:56;;;;;;;38.08;25.77;;;13.40;99.90;;;;;;5026141;28;20570;-76
2023/05/07 07:10:22;;;;;;;37.10;25.70;;;13.90;99.90;;;;;;5042208;28;20040;-78
2023/05/07 07:12:49;;;;;;;34.15;24.20;;;13.50;99.90;;;;;;5047043;28;20063;-76
2023/05/07 07:15:16;;;;;;;32.78;25.17;;;13.60;99.90;;;;;;5036096;28;20491;-76
2023/05/07 07:17:42;;;;;;;33.67;24.85;;;13.60;99.90;;;;;;5039181;28;20044;-76
2023/05/07 07:20:08;;;;;;;34.10;24.75;;;13.70;99.90;;;;;;5032529;28;20051;-79
2023/05/07 07:22:34;;;;;;;33.60;25.08;;;13.70;99.90;;;;;;5042133;28;20138;-77
2023/05/07 07:25:00;;;;;;;31.77;24.10;;;13.80;99.90;;;;;;5042578;28;20056;-75
2023/05/07 07:27:26;;;;;;;33.55;24.58;;;13.90;99.90;;;;;;5044764;28;20090;-77
2023/05/07 07:29:52;;;;;;;30.48;23.75;;;13.90;99.90;;;;;;5052827;28;20076;-75
2023/05/07 07:32:17;;;;;;;33.28;24.35;;;14.00;99.90;;;;;;5052762;28;20131;-80
2023/05/07 07:34:43;;;;;;;31.80;23.33;;;14.00;99.90;;;;;;5025990;28;20145;-74
2023/05/07 07:37:09;;;;;;;32.78;23.70;;;14.10;99.90;;;;;;5040506;28;20048;-75
2023/05/07 07:39:37;;;;;;;31.02;23.40;;;14.00;99.90;;;;;;5049628;28;20044;-77
2023/05/07 07:42:03;;;;;;;29.70;23.02;;;14.10;99.90;;;;;;5038457;28;20134;-76
2023/05/07 07:44:30;;;;;;;31.85;22.98;;;14.10;99.90;;;;;;5041643;28;20080;-78
2023/05/07 07:46:56;;;;;;;28.35;22.75;;;14.20;99.90;;;;;;5048401;28;20108;-75
2023/05/07 07:49:22;;;;;;;30.80;23.75;;;14.20;99.90;;;;;;5051768;28;20048;-76
2023/05/07 07:51:48;;;;;;;30.33;23.15;;;14.20;99.90;;;;;;5028183;28;20060;-78
2023/05/07 07:54:13;;;;;;;28.48;22.95;;;14.30;99.90;;;;;;5056684;28;20098;-77
2023/05/07 07:56:39;;;;;;;30.08;23.33;;;14.40;99.90;;;;;;5047768;28;20492;-76
2023/05/07 07:59:05;;;;;;;29.75;22.33;;;14.50;99.90;;;;;;5053951;28;20609;-75
2023/05/07 08:01:31;;;;;;;31.60;22.92;;;14.50;99.90;;;;;;5060382;28;20045;-75
2023/05/07 08:04:00;;;;;;;27.77;21.25;;;14.70;99.90;;;;;;5047340;28;21082;-78
2023/05/07 08:06:29;;;;;;;31.00;22.90;;;14.80;99.90;;;;;;5052303;28;20051;-75
2023/05/07 08:08:55;;;;;;;26.42;20.75;;;15.00;99.90;;;;;;5048515;28;20044;-75
2023/05/07 08:11:21;;;;;;;27.77;21.85;;;15.10;99.90;;;;;;5038127;28;20445;-76
2023/05/07 08:13:47;;;;;;;28.35;21.75;;;15.20;99.90;;;;;;5049462;28;20044;-74
2023/05/07 08:16:13;;;;;;;26.70;21.52;;;15.30;99.90;;;;;;5055925;28;20389;-74
2023/05/07 08:18:39;;;;;;;27.25;20.75;;;15.40;99.90;;;;;;5051177;28;20071;-75
2023/05/07 08:21:05;;;;;;;25.60;19.80;;;15.40;99.90;;;;;;5054347;28;20048;-78
2023/05/07 08:23:31;;;;;;;27.17;21.00;;;15.50;99.90;;;;;;5020105;28;21038;-77
2023/05/07 08:25:57;;;;;;;27.58;22.25;;;15.60;99.90;;;;;;5037003;28;20556;-76
2023/05/07 08:28:24;;;;;;;25.75;20.35;;;15.80;99.90;;;;;;5056328;28;20159;-75
2023/05/07 08:30:50;;;;;;;26.30;20.63;;;16.10;99.90;;;;;;5047108;28;20056;-74
2023/05/07 08:33:19;;;;;;;25.08;20.50;;;16.50;99.90;;;;;;5052868;28;20044;-76
2023/05/07 08:35:45;;;;;;;24.23;20.00;;;16.90;99.90;;;;;;5049300;28;20161;-77
2023/05/07 08:38:11;;;;;;;22.95;18.77;;;17.20;99.90;;;;;;5041523;28;20478;-77
2023/05/07 08:40:40;;;;;;;25.88;19.48;;;17.50;99.90;;;;;;5036474;28;20560;-75
2023/05/07 08:43:07;;;;;;;23.27;19.05;;;17.80;99.90;;;;;;5051745;28;20137;-75
2023/05/07 08:45:35;;;;;;;23.00;18.92;;;18.10;99.90;;;;;;5018824;28;20837;-76
2023/05/07 08:48:05;;;;;;;23.17;17.55;;;18.40;99.90;;;;;;5053055;28;20044;-78
2023/05/07 08:50:30;;;;;;;22.92;17.88;;;18.60;99.90;;;;;;5044298;28;20049;-76
2023/05/07 08:52:57;;;;;;;21.45;16.98;;;18.70;99.90;;;;;;5046508;28;20082;-74
2023/05/07 08:55:24;;;;;;;23.02;16.65;;;18.80;99.90;;;;;;5018629;28;20041;-76
2023/05/07 08:57:50;;;;;;;19.98;16.33;;;19.10;99.90;;;;;;5034886;28;20056;-76
2023/05/07 09:00:16;;;;;;;18.05;16.05;;;19.20;99.90;;;;;;5050643;28;20048;-77
2023/05/07 09:02:42;;;;;;;19.55;16.98;;;19.20;99.90;;;;;;5048647;28;20082;-78
2023/05/07 09:05:08;;;;;;;19.63;16.35;;;19.10;99.90;;;;;;5048047;28;20044;-76
2023/05/07 09:07:34;;;;;;;17.17;15.38;;;19.10;99.90;;;;;;5040816;28;20045;-76
2023/05/07 09:10:04;;;;;;;17.88;15.95;;;19.10;99.90;;;;;;5043703;28;20036;-76
2023/05/07 09:12:30;;;;;;;17.27;15.13;;;19.20;99.90;;;;;;5038435;28;20040;-75
2023/05/07 09:14:56;;;;;;;18.33;15.27;;;19.10;99.90;;;;;;5058108;28;20398;-75
2023/05/07 09:17:22;;;;;;;18.23;15.88;;;19.20;99.90;;;;;;5046043;28;20054;-76
2023/05/07 09:19:48;;;;;;;18.15;15.57;;;19.40;99.90;;;;;;5053352;28;20084;-77
2023/05/07 09:22:14;;;;;;;18.35;16.45;;;19.70;99.90;;;;;;5057162;28;20525;-75
2023/05/07 09:24:40;;;;;;;21.30;16.30;;;19.70;99.90;;;;;;5049483;28;20082;-76
2023/05/07 09:27:08;;;;;;;19.48;14.95;;;19.80;99.90;;;;;;5053148;28;20135;-76
2023/05/07 09:29:36;;;;;;;18.17;15.13;;;19.90;99.90;;;;;;5032549;28;20045;-77
2023/05/07 09:32:06;;;;;;;20.35;16.60;;;20.10;99.90;;;;;;5035718;28;20036;-75
2023/05/07 09:34:32;;;;;;;17.10;14.93;;;20.30;99.90;;;;;;5051283;28;20052;-74
2023/05/07 09:37:02;;;;;;;16.50;14.73;;;20.50;99.90;;;;;;5048486;28;20044;-77
2023/05/07 09:39:45;;;;;;;17.20;15.35;;;20.70;99.90;;;;;;5053095;28;20049;-77
2023/05/07 09:42:17;;;;;;;19.92;15.82;;;20.80;99.90;;;;;;5057241;28;20526;-75
2023/05/07 09:44:47;;;;;;;18.40;14.32;;;20.90;99.90;;;;;;5021902;28;20055;-77
2023/05/07 09:47:21;;;;;;;17.35;14.43;;;20.80;99.90;;;;;;5022044;28;20048;-74
2023/05/07 09:49:48;;;;;;;17.52;15.38;;;20.90;99.90;;;;;;5051270;28;20052;-76
2023/05/07 09:52:14;;;;;;;18.88;14.90;;;20.70;99.90;;;;;;5056234;28;20125;-75
2023/05/07 09:54:43;;;;;;;17.88;15.63;;;20.50;99.90;;;;;;5052080;28;20055;-75
2023/05/07 09:57:14;;;;;;;16.50;14.73;;;20.70;99.90;;;;;;5038910;28;20097;-75
2023/05/07 09:59:45;;;;;;;17.80;14.75;;;20.80;99.90;;;;;;5051462;28;20040;-76
2023/05/07 10:02:14;;;;;;;17.23;15.40;;;21.10;99.90;;;;;;5054242;28;20048;-77
2023/05/07 10:04:41;;;;;;;18.30;14.82;;;22.00;99.90;;;;;;5054786;28;20135;-75
2023/05/07 10:07:08;;;;;;;18.05;15.85;;;21.50;99.90;;;;;;5048126;28;20048;-75
2023/05/07 10:09:38;;;;;;;17.52;14.55;;;21.80;99.90;;;;;;5038942;28;20055;-77
2023/05/07 10:12:05;;;;;;;15.75;13.85;;;22.10;99.90;;;;;;5026764;28;20048;-77
2023/05/07 10:14:32;;;;;;;15.02;13.50;;;22.20;99.90;;;;;;5049675;28;20704;-75
2023/05/07 10:16:59;;;;;;;16.75;14.55;;;22.20;99.90;;;;;;5035665;28;20410;-73
2023/05/07 10:19:32;;;;;;;16.45;14.75;;;22.10;99.90;;;;;;5057040;28;20604;-75
2023/05/07 10:22:05;;;;;;;16.33;13.98;;;21.90;99.90;;;;;;5037098;28;20479;-76
2023/05/07 10:24:36;;;;;;;18.10;14.57;;;21.90;99.90;;;;;;5051872;28;20396;-74
2023/05/07 10:27:08;;;;;;;16.55;14.65;;;21.90;99.90;;;;;;5049507;28;20049;-74
2023/05/07 10:29:52;;;;;;;16.70;14.73;;;22.00;99.90;;;;;;5045622;28;20047;-75
2023/05/07 10:32:38;;;;;;;18.48;15.85;;;22.10;99.90;;;;;;5048966;28;20048;-75
2023/05/07 10:35:13;;;;;;;16.67;14.48;;;22.00;99.90;;;;;;5021371;28;20956;-76
2023/05/07 10:37:40;;;;;;;16.63;14.43;;;22.00;99.90;;;;;;5048938;28;20048;-75
2023/05/07 10:40:06;;;;;;;16.63;14.60;;;22.10;99.90;;;;;;5036353;28;20333;-76
2023/05/07 10:42:32;;;;;;;16.00;14.35;;;22.30;99.90;;;;;;5047766;28;20067;-74
2023/05/07 10:45:11;;;;;;;17.88;14.27;;;22.50;99.90;;;;;;5014953;28;20111;-74
2023/05/07 10:48:08;;;;;;;16.60;14.57;;;22.70;99.90;;;;;;5031954;28;20125;-74
2023/05/07 10:50:41;;;;;;;16.75;14.63;;;22.80;99.90;;;;;;5054135;28;20469;-76
2023/05/07 10:53:19;;;;;;;15.32;13.73;;;22.80;99.90;;;;;;5051397;28;20558;-74
2023/05/07 10:56:12;;;;;;;17.30;14.63;;;22.80;99.90;;;;;;5056160;28;20532;-76
2023/05/07 10:58:38;;;;;;;15.68;14.02;;;22.80;99.90;;;;;;5040910;28;20048;-74
2023/05/07 11:01:05;;;;;;;15.65;14.02;;;22.60;99.90;;;;;;5044204;28;20506;-76
2023/05/07 11:03:31;;;;;;;15.77;13.35;;;23.10;99.90;;;;;;5052806;28;20059;-74
2023/05/07 11:06:12;;;;;;;15.93;14.23;;;23.10;99.90;;;;;;5026158;28;20032;-74
2023/05/07 11:08:57;;;;;;;16.50;14.05;;;23.20;99.90;;;;;;5043717;28;20471;-75
2023/05/07 11:11:47;;;;;;;17.07;15.17;;;23.20;99.90;;;;;;5039846;28;20040;-75
2023/05/07 11:14:14;;;;;;;16.02;14.00;;;23.40;99.90;;;;;;5051416;28;20049;-77
2023/05/07 11:16:46;;;;;;;18.27;14.68;;;23.60;99.90;;;;;;5057866;28;20139;-75
2023/05/07 11:19:12;;;;;;;15.90;14.30;;;23.80;99.90;;;;;;5052401;28;20036;-74
2023/05/07 11:21:38;;;;;;;16.98;14.07;;;23.70;99.90;;;;;;5057481;28;20055;-73
2023/05/07 11:24:06;;;;;;;17.92;13.98;;;23.80;99.90;;;;;;5048014;28;20826;-76
2023/05/07 11:26:44;;;;;;;17.08;14.55;;;24.10;99.90;;;;;;5034083;28;20040;-73
2023/05/07 11:29:12;;;;;;;16.17;13.13;;;24.30;99.90;;;;;;5038067;28;20056;-74
2023/05/07 11:31:38;;;;;;;16.63;14.23;;;24.50;99.90;;;;;;5055623;28;20105;-76
2023/05/07 11:34:05;;;;;;;15.55;13.93;;;24.60;99.90;;;;;;5066882;28;20398;-77
2023/05/07 11:36:32;;;;;;;15.15;13.52;;;24.50;99.90;;;;;;5045023;28;20052;-77
2023/05/07 11:38:58;;;;;;;16.92;15.02;;;24.50;99.90;;;;;;5060509;28;20057;-75
2023/05/07 11:41:34;;;;;;;16.20;14.35;;;24.60;99.90;;;;;;5055858;28;20280;-75
2023/05/07 11:44:00;;;;;;;15.38;13.68;;;24.60;99.90;;;;;;5028965;28;20487;-77
2023/05/07 11:46:27;;;;;;;17.50;14.90;;;24.80;99.90;;;;;;5039220;28;21146;-76
2023/05/07 11:48:54;;;;;;;15.65;12.95;;;25.00;99.90;;;;;;5055112;28;20080;-75
2023/05/07 11:51:25;;;;;;;15.65;13.55;;;25.30;99.90;;;;;;5038139;28;20494;-77
2023/05/07 11:53:52;;;;;;;15.10;13.57;;;25.70;99.90;;;;;;5059109;28;20494;-77
2023/05/07 11:56:18;;;;;;;15.90;13.50;;;26.00;99.90;;;;;;5064508;28;20499;-77
2023/05/07 11:58:45;;;;;;;16.77;14.25;;;26.30;99.90;;;;;;5052018;28;20044;-75
2023/05/07 12:01:13;;;;;;;15.50;13.73;;;26.40;99.90;;;;;;5057797;28;20533;-77
2023/05/07 12:03:45;;;;;;;14.70;13.25;;;26.60;99.90;;;;;;5046671;28;20048;-75
2023/05/07 12:06:15;;;;;;;16.05;14.00;;;26.70;99.90;;;;;;5044132;28;20984;-76
2023/05/07 12:08:43;;;;;;;16.40;14.00;;;26.80;99.90;;;;;;5058251;28;20514;-77
2023/05/07 12:11:25;;;;;;;15.00;13.18;;;26.50;99.90;;;;;;5038771;28;20399;-77
2023/05/07 12:13:51;;;;;;;14.55;12.20;;;26.60;99.80;;;;;;5062328;28;20053;-75
2023/05/07 12:16:18;;;;;;;15.63;13.73;;;26.60;99.90;;;;;;5050013;28;20059;-76
2023/05/07 12:18:45;;;;;;;14.52;13.02;;;26.40;99.90;;;;;;5055495;28;20113;-75
2023/05/07 12:21:11;;;;;;;15.77;13.63;;;26.20;99.90;;;;;;5053921;28;20044;-74
2023/05/07 12:23:40;;;;;;;16.27;12.60;;;26.10;99.90;;;;;;5050467;28;20044;-74
2023/05/07 12:26:07;;;;;;;14.63;12.70;;;26.00;99.90;;;;;;5042853;28;21141;-75
2023/05/07 12:28:38;;;;;;;16.00;13.40;;;25.90;99.90;;;;;;5046015;28;20040;-76
2023/05/07 12:31:05;;;;;;;15.50;13.57;;;25.80;99.90;;;;;;5042679;28;20135;-75